createdAt,value
2023-03-29T00:03:20.456Z,99592.60
2023-03-29T00:08:22.236Z,99587.54
2023-03-29T00:13:24.187Z,99586.39
2023-03-29T00:18:26.240Z,99583.96
2023-03-29T00:23:28.246Z,99582.20
2023-03-29T00:28:30.550Z,99581.81
2023-03-29T00:33:32.234Z,99576.88
2023-03-29T00:38:34.680Z,99574.10
2023-03-29T00:43:59.844Z,99575.48
2023-03-29T00:49:12.905Z,99569.24
2023-03-29T00:54:18.742Z,99563.85
2023-03-29T00:59:24.553Z,99559.25
2023-03-29T01:04:45.536Z,99555.09
2023-03-29T01:09:53.219Z,99551.17
2023-03-29T01:15:02.172Z,99549.09
2023-03-29T01:20:14.248Z,99543.47
2023-03-29T01:25:20.311Z,99540.27
2023-03-29T01:30:34.501Z,99538.02
2023-03-29T01:35:44.696Z,99530.13
2023-03-29T01:40:46.682Z,99527.59
2023-03-29T01:46:19.091Z,99519.23
2023-03-29T01:51:31.866Z,99522.14
2023-03-29T01:56:41.699Z,99518.67
2023-03-29T02:01:49.672Z,99524.42
2023-03-29T02:06:54.276Z,99521.74
2023-03-29T02:12:00.881Z,99527.41
2023-03-29T02:17:16.636Z,99524.67
2023-03-29T02:22:26.532Z,99525.74
2023-03-29T02:27:29.543Z,99526.10
2023-03-29T02:32:59.525Z,99520.59
2023-03-29T02:38:04.595Z,99518.61
2023-03-29T02:43:08.388Z,99522.39
2023-03-29T02:48:16.307Z,99525.77
2023-03-29T02:53:24.211Z,99529.77
2023-03-29T02:58:26.734Z,99532.89
2023-03-29T03:03:29.352Z,99527.20
2023-03-29T03:08:32.845Z,99526.40
2023-03-29T03:13:34.706Z,99525.77
2023-03-29T03:18:36.691Z,99522.30
2023-03-29T03:23:38.387Z,99524.40
2023-03-29T03:28:41.806Z,99520.98
2023-03-29T03:33:46.409Z,99522.77
2023-03-29T03:39:11.879Z,99523.54
2023-03-29T03:44:13.882Z,99524.88
2023-03-29T03:49:17.312Z,99522.09
2023-03-29T03:54:19.125Z,99516.32
2023-03-29T03:59:43.445Z,99516.13
2023-03-29T04:04:49.554Z,99514.98
2023-03-29T04:09:54.195Z,99513.04
2023-03-29T04:15:05.077Z,99509.10
2023-03-29T04:20:10.318Z,99507.94
2023-03-29T04:25:12.395Z,99508.28
2023-03-29T04:30:20.464Z,99503.48
2023-03-29T04:35:42.492Z,99500.50
2023-03-29T04:40:48.498Z,99496.29
2023-03-29T04:46:28.944Z,99502.94
2023-03-29T04:52:01.000Z,99503.70
2023-03-29T04:57:06.178Z,99503.51
2023-03-29T05:02:32.411Z,99501.35
2023-03-29T05:07:35.667Z,99501.84
2023-03-29T05:12:37.636Z,99496.03
2023-03-29T05:17:39.480Z,99490.36
2023-03-29T05:22:44.871Z,99490.45
2023-03-29T05:27:52.117Z,99487.58
2023-03-29T05:32:54.244Z,99488.47
2023-03-29T05:38:00.673Z,99490.03
2023-03-29T05:43:02.855Z,99489.05
2023-03-29T05:48:05.540Z,99493.56
2023-03-29T05:53:08.090Z,99489.83
2023-03-29T05:58:12.352Z,99482.77
2023-03-29T06:03:21.111Z,99481.37
2023-03-29T06:08:24.218Z,99479.67
2023-03-29T06:13:37.144Z,99478.86
2023-03-29T06:18:40.312Z,99476.33
2023-03-29T06:23:42.921Z,99476.38
2023-03-29T06:28:44.907Z,99476.08
2023-03-29T06:33:47.255Z,99476.58
2023-03-29T06:38:59.032Z,99477.46
2023-03-29T06:44:23.876Z,99477.84
2023-03-29T06:49:34.402Z,99482.86
2023-03-29T06:55:01.704Z,99490.67
2023-03-29T07:00:16.297Z,99488.02
2023-03-29T07:05:40.966Z,99481.30
2023-03-29T07:10:47.597Z,99474.98
2023-03-29T07:16:14.845Z,99473.58
2023-03-29T07:21:31.094Z,99475.80
2023-03-29T07:26:33.362Z,99473.29
2023-03-29T07:31:38.650Z,99471.48
2023-03-29T07:37:03.151Z,99468.02
2023-03-29T07:42:06.749Z,99462.99
2023-03-29T07:47:09.406Z,99461.15
2023-03-29T07:52:12.124Z,99457.96
2023-03-29T07:57:15.001Z,99459.96
2023-03-29T08:02:21.440Z,99451.75
2023-03-29T08:07:25.753Z,99449.70
2023-03-29T08:12:58.174Z,99448.81
2023-03-29T08:18:09.240Z,99444.31
2023-03-29T08:23:11.595Z,99447.70
2023-03-29T08:28:28.392Z,99438.70
2023-03-29T08:33:30.497Z,99437.41
2023-03-29T08:38:51.628Z,99435.13
2023-03-29T08:44:27.908Z,99429.73
2023-03-29T08:49:38.010Z,99428.55
2023-03-29T08:54:45.982Z,99431.13
2023-03-29T09:00:07.042Z,99428.43
2023-03-29T09:05:34.926Z,99422.67
2023-03-29T09:11:26.184Z,99417.63
2023-03-29T09:16:38.191Z,99415.33
2023-03-29T09:22:04.210Z,99408.47
2023-03-29T09:27:43.817Z,99401.48
2023-03-29T09:33:19.933Z,99405.59
2023-03-29T09:38:39.676Z,99402.98
2023-03-29T09:43:44.328Z,99398.16
2023-03-29T09:48:51.642Z,99398.67
2023-03-29T09:53:56.571Z,99395.21
2023-03-29T09:59:23.950Z,99400.20
2023-03-29T10:04:26.221Z,99393.18
2023-03-29T10:09:33.164Z,99387.96
2023-03-29T10:14:51.502Z,99389.60
2023-03-29T10:20:17.065Z,99381.91
2023-03-29T10:25:19.062Z,99381.35
2023-03-29T10:30:26.122Z,99368.92
2023-03-29T10:35:29.743Z,99367.39
2023-03-29T10:40:40.151Z,99364.19
2023-03-29T10:45:42.536Z,99362.50
2023-03-29T10:50:50.439Z,99352.23
2023-03-29T10:56:27.979Z,99342.80
2023-03-29T11:01:57.485Z,99333.58
2023-03-29T11:07:27.176Z,99325.41
2023-03-29T11:12:31.663Z,99314.57
2023-03-29T11:18:01.024Z,99307.77
2023-03-29T11:23:18.130Z,99294.14
2023-03-29T11:28:35.509Z,99295.18
2023-03-29T11:34:02.313Z,99280.85
2023-03-29T11:39:42.429Z,99279.17
2023-03-29T11:44:47.027Z,99268.84
2023-03-29T11:49:59.466Z,99267.31
2023-03-29T11:55:27.964Z,99257.05
2023-03-29T12:00:37.649Z,99250.31
2023-03-29T12:05:46.859Z,99242.30
2023-03-29T12:10:55.786Z,99237.20
2023-03-29T12:16:05.029Z,99239.94
2023-03-29T12:21:14.153Z,99239.86
2023-03-29T12:26:37.931Z,99230.02
2023-03-29T12:31:49.076Z,99221.30
2023-03-29T12:37:24.497Z,99212.98
2023-03-29T12:42:47.729Z,99210.36
2023-03-29T12:48:17.399Z,99201.29
2023-03-29T12:53:26.984Z,99196.50
2023-03-29T12:58:59.724Z,99192.95
2023-03-29T13:04:01.464Z,99188.92
2023-03-29T13:09:23.093Z,99182.95
2023-03-29T13:14:30.274Z,99184.19
2023-03-29T13:20:07.684Z,99178.05
2023-03-29T13:25:41.716Z,99169.34
2023-03-29T13:30:52.473Z,99168.95
2023-03-29T13:36:26.593Z,99159.87
2023-03-29T13:41:31.708Z,99145.36
2023-03-29T13:46:41.004Z,99138.73
2023-03-29T13:52:02.512Z,99134.84
2023-03-29T13:57:20.591Z,99126.10
2023-03-29T14:02:32.967Z,99125.18
2023-03-29T14:07:37.863Z,99124.23
2023-03-29T14:12:41.872Z,99124.38
2023-03-29T14:17:44.136Z,99122.92
2023-03-29T14:22:46.508Z,99115.40
2023-03-29T14:27:49.073Z,99115.98
2023-03-29T14:32:52.363Z,99114.59
2023-03-29T14:37:54.233Z,99103.08
2023-03-29T14:42:56.350Z,99102.58
2023-03-29T14:47:59.460Z,99091.65
2023-03-29T14:53:01.935Z,99088.10
2023-03-29T14:58:04.367Z,99087.30
2023-03-29T15:03:14.017Z,99080.83
2023-03-29T15:08:29.042Z,99080.16
2023-03-29T15:13:30.850Z,99077.20
2023-03-29T15:18:42.450Z,99067.09
2023-03-29T15:23:53.025Z,99070.73
2023-03-29T15:29:07.983Z,99070.23
2023-03-29T15:34:24.152Z,99061.64
2023-03-29T15:39:29.205Z,99063.10
2023-03-29T15:44:33.976Z,99060.72
2023-03-29T15:49:36.046Z,99057.59
2023-03-29T15:54:37.813Z,99057.48
2023-03-29T15:59:39.656Z,99056.83
2023-03-29T16:04:41.806Z,99053.18
2023-03-29T16:09:46.774Z,99045.75
2023-03-29T16:14:48.512Z,99037.20
2023-03-29T16:19:50.144Z,99037.42
2023-03-29T16:24:52.219Z,99042.67
2023-03-29T16:29:53.904Z,99046.21
2023-03-29T16:34:58.463Z,99051.48
2023-03-29T16:40:00.421Z,99053.77
2023-03-29T16:45:02.304Z,99053.94
2023-03-29T16:50:04.715Z,99058.24
2023-03-29T16:55:08.069Z,99056.94
2023-03-29T17:00:11.242Z,99058.92
2023-03-29T17:05:12.976Z,99059.60
2023-03-29T17:10:14.894Z,99063.84
2023-03-29T17:15:18.417Z,99059.57
2023-03-29T17:20:20.338Z,99064.54
2023-03-29T17:25:23.550Z,99062.21
2023-03-29T17:30:25.391Z,99066.40
2023-03-29T17:35:27.122Z,99072.84
2023-03-29T17:40:28.765Z,99077.30
2023-03-29T17:45:30.894Z,99075.02
2023-03-29T17:50:32.540Z,99070.58
2023-03-29T17:55:34.174Z,99069.30
2023-03-29T18:00:35.905Z,99075.77
2023-03-29T18:05:37.620Z,99082.88
2023-03-29T18:10:40.058Z,99085.46
2023-03-29T18:15:45.139Z,99089.05
2023-03-29T18:20:47.270Z,99091.20
2023-03-29T18:25:49.000Z,99092.60
2023-03-29T18:30:52.269Z,99090.73
2023-03-29T18:35:54.006Z,99091.70
2023-03-29T18:40:56.128Z,99086.33
2023-03-29T18:45:58.143Z,99082.52
2023-03-29T18:50:59.904Z,99082.70
2023-03-29T18:56:03.400Z,99076.49
2023-03-29T19:01:06.377Z,99076.84
2023-03-29T19:06:08.520Z,99079.72
2023-03-29T19:11:14.254Z,99085.34
2023-03-29T19:16:17.315Z,99083.16
2023-03-29T19:21:19.198Z,99084.05
2023-03-29T19:26:21.711Z,99084.27
2023-03-29T19:31:23.729Z,99082.40
2023-03-29T19:36:25.520Z,99078.95
2023-03-29T19:41:27.453Z,99079.34
2023-03-29T19:46:29.499Z,99084.48
2023-03-29T19:51:31.847Z,99076.83
2023-03-29T19:56:34.856Z,99072.19
2023-03-29T20:01:40.812Z,99066.22
2023-03-29T20:06:42.558Z,99063.20
2023-03-29T20:11:46.768Z,99065.86
2023-03-29T20:16:52.407Z,99064.39
2023-03-29T20:21:58.108Z,99054.66
2023-03-29T20:26:59.808Z,99047.70
2023-03-29T20:32:01.652Z,99047.78
2023-03-29T20:37:03.691Z,99045.55
2023-03-29T20:42:06.612Z,99048.44
2023-03-29T20:47:14.149Z,99048.77
2023-03-29T20:52:16.944Z,99050.62
2023-03-29T20:57:20.809Z,99044.90
2023-03-29T21:02:23.338Z,99041.77
2023-03-29T21:07:26.611Z,99039.58
2023-03-29T21:12:34.216Z,99037.39
2023-03-29T21:17:38.006Z,99037.55
2023-03-29T21:22:43.061Z,99032.92
2023-03-29T21:27:44.773Z,99030.79
2023-03-29T21:32:48.538Z,99019.33
2023-03-29T21:37:51.032Z,99011.89
2023-03-29T21:42:53.580Z,99009.49
2023-03-29T21:48:08.816Z,99003.04
2023-03-29T21:53:14.199Z,98998.75
2023-03-29T21:58:16.268Z,98993.10
2023-03-29T22:03:18.224Z,98994.08
2023-03-29T22:08:19.988Z,98991.44
2023-03-29T22:13:23.585Z,98983.38
2023-03-29T22:18:30.221Z,98980.12
2023-03-29T22:23:31.934Z,98973.90
2023-03-29T22:28:36.608Z,98980.30
2023-03-29T22:33:39.361Z,98980.30
2023-03-29T22:38:41.278Z,98975.21
2023-03-29T22:43:43.344Z,98976.52
2023-03-29T22:48:46.078Z,98978.27
2023-03-29T22:53:47.745Z,98974.05
2023-03-29T22:58:49.403Z,98967.91
2023-03-29T23:03:51.779Z,98966.59
2023-03-29T23:08:55.975Z,98958.45
2023-03-29T23:14:22.717Z,98960.98
2023-03-29T23:19:24.444Z,98963.90
2023-03-29T23:24:26.131Z,98961.79
2023-03-29T23:29:28.170Z,98956.09
2023-03-29T23:34:30.312Z,98958.58
2023-03-29T23:39:32.111Z,98958.55
2023-03-29T23:44:34.577Z,98955.60
2023-03-29T23:49:38.689Z,98950.98
2023-03-29T23:55:01.058Z,98947.05
